Aérodrome :
LOGIN :

S'inscrire | Disclaimer

   EN    FR    IT 

 










Légende :    VFR   VFR Marginal   IFR   IFR Intensif   IFR Très Intensif
Visi : 
Plafond : 
>= 8 km
>= 3000ft
5 à 8 km
1000 à 3000 ft
1500m à 5 km
500 à 1000 ft
800 à 1500m
200 à 500 ft
< 800m
< 200 ft
Symboles :   Orages  Brouillard  Fortes neiges  Fortes précipitations  Vent > 20 kt
SIGMETs :   Divers  Orages  Givrage  Turbulence  Onde Orograph.  Cendres Volcan.






- Altitude de l'aérodrome : 141 ft
- Code IATA : SKS


EKSP - Srydstrup Vojens

DERNIER METAR :
  • 172050Z 30009KT 9999 BKN030 04/01 Q1031

METARs EXPIRÉS :
  • 172020Z 30008KT 9999 BKN030 03/01 Q1030
  • 171950Z 29007KT 9999 BKN030 03/01 Q1030
  • 171920Z 28005KT 9999 BKN030 03/00 Q1029
  • 171850Z 28007KT 9999 BKN030 02/M01 Q1029
  • 171820Z 29006KT 9999 SCT030 02/M01 Q1029 NOSIG

TAF TAF EKSP
Valide du 17 à 21h jusqu'au 18 à 21h UTC


172007Z 1721/1821 27008KT 9999 SCT020
TEMPO 1722/1801 6000 BKN010
TEMPO 1801/1803 3000 BR BKN005
TEMPO 1803/1808 1200 -DZ BKN002
TEMPO 1808/1816 4000 BR BKN008
TEMPO 1816/1821 2500 BR BKN003



MET'MAP, la Météo Aéronautique d'un coup d'oeil ! - Copyright ORBIFLY Décembre 2007 - Disclaimer

ORBIFLY MET'MAP TEAM :

Programmation & Développement : Alexandra Zaïnal
Sur une idée originale de : Baudouin d'Aumeries
Assistance à la programmation : Marc-Olivier Méhu
Soutien technique & logistique : Manuel Goepfert

Contact : metmap@orbifly.com




SOURCES & CREDITS :

   NOAA